LiveATC.Net - Listen to live air traffic control over the Internet!


ICAO: LTFJ  IATA: SAW   Airport: Istanbul Sabiha Gokcen International Airport
City: Istanbul
Country: Turkey   Continent: Europe
LTFJ METAR Weather: LTFJ 010150Z 03012KT 7000 BKN008 BKN022 06/04 Q1016 NOSIG
LTFJ Flight Activity (FlightAware)

LTFJ Del/Gnd/Twr
Feed Status: UP   Listeners: 0
Listen in your browser - HTML5 player (in browser, HTML5)
Click here to listen with your own player (launches your MP3 player)
Archive Access: LTFJ Del/Gnd/Twr
FacilityFrequency
Gokcen Clearance Delivery122.625
Gokcen Ground121.750
Gokcen Tower118.800

LTFJ Pegasus Dispatch
Feed Status: DOWN
Last heard on: 2019-11-04 19:23:39 (148 days 7 hours 0 minutes ago)
Archive Access: LTFJ Pegasus Dispatch
FacilityFrequency
Pegasus Dispatch131.750

NOTICE

Unauthorized use prohibited. See LiveATC.net Terms of Service


Airport/ARTCC Code
Frequency Search
(e.g., 124.400, 128.75)
Site-wide search
 


Browse Feeds
Top 50 Feeds
Coverage Map
Bad Weather Areas

LiveATC FAQ
Offer LiveATC feed
Contact LiveATC.net
Press Inquiries

LiveATC on iPhone
LiveATC on Android

Windows Phone
Windows 8/10

LiveATC Mobile
(Mobile browser)

ATC Audio Archives
Interesting Recordings

LiveATC Forums


Home Page
About LiveATC.net
Make a Donation
Terms of Use
Privacy Policy

Canadian Air Freqs

AIRMETs/SIGMETs

FAA Airport Status
Nat'l Airspace Status
Arrival Demand Charts


Server Software By:
Icecast.org
Liquidsoap